Time;durP1;ratioP1;P1;durP2;ratioP2;P2;SDS_P1;SDS_P2;PMS_P1;PMS_P2;Temp;Humidity;BMP_temperature;BMP_pressure;BME280_temperature;BME280_humidity;BME280_pressure;Samples;Min_cycle;Max_cycle;Signal;HPM_P1;HPM_P2
2021/03/16 00:00:56;;;;;;;14.38;1.30;;;3.20;99.90;;;;;;5085128;28;20059;-70
2021/03/16 00:03:22;;;;;;;12.05;2.03;;;3.10;99.90;;;;;;5084096;28;20032;-71
2021/03/16 00:05:48;;;;;;;10.57;1.60;;;3.20;99.90;;;;;;5084553;28;20101;-71
2021/03/16 00:08:14;;;;;;;9.75;0.80;;;3.20;99.90;;;;;;5080491;28;20025;-70
2021/03/16 00:10:40;;;;;;;1.55;1.10;;;3.10;99.90;;;;;;5080803;28;20055;-71
2021/03/16 00:13:05;;;;;;;2.63;1.10;;;3.10;99.90;;;;;;5085342;28;20067;-71
2021/03/16 00:15:31;;;;;;;1.08;0.35;;;3.10;99.90;;;;;;5080358;28;20048;-71
2021/03/16 00:17:57;;;;;;;7.47;1.50;;;3.10;99.90;;;;;;5065154;28;20535;-72
2021/03/16 00:20:23;;;;;;;8.93;1.83;;;3.10;99.90;;;;;;5065173;28;20420;-70
2021/03/16 00:22:49;;;;;;;1.17;0.88;;;3.10;99.90;;;;;;5074416;28;20025;-72
2021/03/16 00:25:16;;;;;;;1.90;0.85;;;3.10;99.90;;;;;;5085138;28;20076;-71
2021/03/16 00:27:41;;;;;;;2.83;1.15;;;3.10;99.90;;;;;;5084648;28;20119;-71
2021/03/16 00:30:07;;;;;;;4.97;0.95;;;3.00;99.90;;;;;;5084872;28;20031;-70
2021/03/16 00:32:33;;;;;;;4.53;1.52;;;3.00;99.90;;;;;;5084335;28;20032;-71
2021/03/16 00:34:59;;;;;;;3.42;2.17;;;3.00;99.90;;;;;;5084665;28;20036;-71
2021/03/16 00:37:25;;;;;;;5.45;1.77;;;3.10;99.90;;;;;;5084978;28;20372;-71
2021/03/16 00:39:52;;;;;;;8.90;1.35;;;3.00;99.90;;;;;;5084634;28;20025;-71
2021/03/16 00:42:17;;;;;;;13.90;1.65;;;3.10;99.90;;;;;;5084948;28;20418;-70
2021/03/16 00:44:43;;;;;;;6.15;0.95;;;3.10;99.90;;;;;;5084587;28;20062;-71
2021/03/16 00:47:08;;;;;;;4.47;1.73;;;3.00;99.90;;;;;;5071506;28;20036;-72
2021/03/16 00:49:34;;;;;;;10.70;1.48;;;3.10;99.90;;;;;;5064371;28;20024;-71
2021/03/16 00:52:01;;;;;;;15.07;1.95;;;3.10;99.90;;;;;;5064669;28;20037;-71
2021/03/16 00:54:27;;;;;;;4.07;1.50;;;3.10;99.90;;;;;;5063975;28;20036;-72
2021/03/16 00:56:53;;;;;;;5.28;1.27;;;3.10;99.90;;;;;;5064600;28;20028;-71
2021/03/16 00:59:20;;;;;;;8.93;0.95;;;3.10;99.90;;;;;;5064446;28;20029;-71
2021/03/16 01:01:45;;;;;;;4.93;1.23;;;3.10;99.90;;;;;;5064692;28;20048;-73
2021/03/16 01:04:11;;;;;;;16.73;1.30;;;3.10;99.90;;;;;;5064535;28;20037;-71
2021/03/16 01:06:37;;;;;;;7.47;1.38;;;3.10;99.90;;;;;;5065699;28;20029;-70
2021/03/16 01:09:03;;;;;;;6.05;1.33;;;3.10;99.90;;;;;;5064636;28;20025;-71
2021/03/16 01:11:29;;;;;;;1.85;0.63;;;3.10;99.90;;;;;;5064151;28;20052;-71
2021/03/16 01:13:55;;;;;;;1.92;0.57;;;3.10;99.90;;;;;;5079675;28;20040;-72
2021/03/16 01:16:21;;;;;;;12.38;1.67;;;3.10;99.90;;;;;;5079878;28;20397;-71
2021/03/16 01:18:46;;;;;;;12.30;0.73;;;3.10;99.90;;;;;;5064298;28;20040;-71
2021/03/16 01:21:12;;;;;;;4.47;1.85;;;3.00;99.90;;;;;;5064159;28;20116;-70
2021/03/16 01:23:37;;;;;;;6.80;1.05;;;3.00;99.90;;;;;;5064193;28;20108;-70
2021/03/16 01:26:05;;;;;;;1.95;0.93;;;3.00;99.90;;;;;;5062761;28;20032;-70
2021/03/16 01:28:30;;;;;;;23.73;2.17;;;3.00;99.90;;;;;;5064022;28;20025;-71
2021/03/16 01:30:57;;;;;;;6.63;1.35;;;3.00;99.90;;;;;;5064479;28;20040;-70
2021/03/16 01:33:23;;;;;;;14.90;2.72;;;3.00;99.90;;;;;;5064277;28;20044;-70
2021/03/16 01:35:48;;;;;;;1.98;1.17;;;3.00;99.90;;;;;;5064201;28;20084;-72
2021/03/16 01:38:14;;;;;;;6.90;2.38;;;3.00;99.90;;;;;;5079535;28;20047;-71
2021/03/16 01:40:41;;;;;;;4.00;1.65;;;3.00;99.90;;;;;;5064203;28;20057;-70
2021/03/16 01:43:09;;;;;;;5.88;1.40;;;3.00;99.90;;;;;;5064047;28;20090;-71
2021/03/16 01:45:35;;;;;;;3.83;1.88;;;3.00;99.90;;;;;;5064175;28;20029;-71
2021/03/16 01:48:03;;;;;;;2.28;1.02;;;3.00;99.90;;;;;;5063940;28;20035;-71
2021/03/16 01:50:29;;;;;;;12.88;2.08;;;2.90;99.90;;;;;;5064021;28;20029;-70
2021/03/16 01:52:55;;;;;;;10.82;1.95;;;2.90;99.90;;;;;;5067598;28;20075;-71
2021/03/16 01:55:21;;;;;;;5.43;1.02;;;2.90;99.90;;;;;;5067857;28;20025;-72
2021/03/16 01:57:48;;;;;;;7.18;2.15;;;2.90;99.90;;;;;;5068055;28;20028;-70
2021/03/16 02:00:15;;;;;;;17.05;1.63;;;2.90;99.90;;;;;;5067662;28;20035;-71
2021/03/16 02:02:40;;;;;;;8.35;0.82;;;2.90;99.90;;;;;;5067480;28;20646;-71
2021/03/16 02:05:09;;;;;;;2.22;1.50;;;3.00;99.90;;;;;;5082887;28;20033;-71
2021/03/16 02:07:55;;;;;;;7.22;1.67;;;3.00;99.90;;;;;;5067662;28;20084;-72
2021/03/16 02:10:55;;;;;;;6.82;1.63;;;3.10;99.90;;;;;;5067668;28;20025;-71
2021/03/16 02:13:27;;;;;;;2.17;1.23;;;3.20;99.90;;;;;;5067302;28;20123;-71
2021/03/16 02:16:01;;;;;;;5.53;1.45;;;3.30;99.90;;;;;;5067487;28;20028;-73
2021/03/16 02:18:28;;;;;;;;;;;3.30;99.90;;;;;;5067669;28;20111;-71
2021/03/16 02:21:22;;;;;;;16.17;2.28;;;3.40;99.90;;;;;;5067415;28;19905;-71
2021/03/16 02:24:06;;;;;;;9.93;1.98;;;3.50;99.90;;;;;;5066369;28;20041;-71
2021/03/16 02:26:37;;;;;;;;;;;3.50;99.90;;;;;;5067788;28;20036;-69
2021/03/16 02:29:28;;;;;;;3.38;2.20;;;3.60;99.90;;;;;;5067123;28;19909;-70
2021/03/16 02:32:13;;;;;;;8.95;2.72;;;3.70;99.90;;;;;;5067172;28;20024;-72
2021/03/16 02:34:48;;;;;;;12.50;3.05;;;3.70;99.90;;;;;;5078633;28;20062;-71
2021/03/16 02:37:22;;;;;;;9.52;1.38;;;3.80;99.90;;;;;;5082413;28;20028;-70
2021/03/16 02:39:50;;;;;;;26.05;3.67;;;3.80;99.90;;;;;;5086247;28;20037;-71
2021/03/16 02:42:17;;;;;;;14.77;2.28;;;3.90;99.90;;;;;;5085856;28;20028;-70
2021/03/16 02:44:43;;;;;;;10.18;2.33;;;4.00;99.90;;;;;;5086619;28;20130;-71
2021/03/16 02:47:09;;;;;;;11.25;3.05;;;4.00;99.90;;;;;;5083332;28;20027;-71
2021/03/16 02:49:42;;;;;;;15.23;2.10;;;4.00;99.90;;;;;;5083062;28;20047;-72
2021/03/16 02:52:11;;;;;;;12.52;2.92;;;4.10;99.90;;;;;;5086006;28;20028;-72
2021/03/16 02:54:37;;;;;;;7.68;3.28;;;4.10;99.90;;;;;;5086315;28;20037;-71
2021/03/16 02:57:04;;;;;;;16.65;2.50;;;4.20;99.90;;;;;;5086473;28;20024;-70
2021/03/16 02:59:30;;;;;;;10.45;1.73;;;4.20;99.90;;;;;;5086573;28;20029;-70
2021/03/16 03:02:01;;;;;;;24.75;3.25;;;4.20;99.90;;;;;;5085774;28;20036;-71
2021/03/16 03:04:28;;;;;;;22.08;2.40;;;4.20;99.90;;;;;;5085379;28;20028;-71
2021/03/16 03:06:56;;;;;;;9.85;1.98;;;4.30;99.90;;;;;;5086608;28;20024;-70
2021/03/16 03:09:22;;;;;;;18.25;2.45;;;4.30;99.90;;;;;;5084961;28;20021;-71
2021/03/16 03:11:48;;;;;;;10.93;1.90;;;4.40;99.90;;;;;;5086156;28;20055;-71
2021/03/16 03:14:15;;;;;;;12.77;2.28;;;4.40;99.90;;;;;;5086290;28;20044;-70
2021/03/16 03:16:40;;;;;;;15.15;2.97;;;4.40;99.90;;;;;;5084904;28;20044;-71
2021/03/16 03:19:06;;;;;;;22.15;2.03;;;4.40;99.90;;;;;;5086302;28;20050;-72
2021/03/16 03:21:59;;;;;;;8.02;1.13;;;4.40;99.90;;;;;;5086095;28;20029;-70
2021/03/16 03:24:30;;;;;;;8.07;2.63;;;4.50;99.90;;;;;;5084735;28;20032;-70
2021/03/16 03:27:01;;;;;;;14.63;2.55;;;4.50;99.90;;;;;;5086032;28;20028;-72
2021/03/16 03:29:30;;;;;;;7.55;2.45;;;4.50;99.90;;;;;;5086210;28;20100;-70
2021/03/16 03:31:58;;;;;;;20.40;3.08;;;4.50;99.90;;;;;;5086066;28;20047;-70
2021/03/16 03:34:24;;;;;;;9.85;2.30;;;4.60;99.90;;;;;;5085934;28;20054;-72
2021/03/16 03:36:55;;;;;;;7.18;1.67;;;4.60;99.90;;;;;;5086113;28;20120;-71
2021/03/16 03:39:22;;;;;;;15.98;2.75;;;4.60;99.90;;;;;;5084492;28;20039;-70
2021/03/16 03:41:53;;;;;;;3.55;1.23;;;4.60;99.90;;;;;;5086190;28;20046;-70
2021/03/16 03:44:22;;;;;;;8.68;0.95;;;4.60;99.90;;;;;;5085820;28;20047;-71
2021/03/16 03:46:49;;;;;;;8.30;1.42;;;4.60;99.90;;;;;;5084665;28;20028;-71
2021/03/16 03:49:16;;;;;;;13.23;1.73;;;4.60;99.90;;;;;;5085831;28;20056;-72
2021/03/16 03:51:43;;;;;;;10.57;1.52;;;4.60;99.90;;;;;;5085515;28;20025;-73
2021/03/16 03:54:10;;;;;;;8.38;1.33;;;4.60;99.90;;;;;;5085257;28;20068;-70
2021/03/16 03:56:37;;;;;;;9.50;2.00;;;4.60;99.90;;;;;;5085461;28;20059;-70
2021/03/16 03:59:05;;;;;;;24.30;1.50;;;4.50;99.90;;;;;;5085410;28;20043;-71
2021/03/16 04:01:31;;;;;;;21.92;2.17;;;4.60;99.90;;;;;;5085264;28;20085;-72
2021/03/16 04:03:59;;;;;;;19.77;1.63;;;4.60;99.90;;;;;;5085190;28;20028;-71
2021/03/16 04:06:26;;;;;;;10.95;1.67;;;4.60;99.90;;;;;;5083865;28;20053;-71
2021/03/16 04:08:54;;;;;;;5.13;1.27;;;4.60;99.90;;;;;;5085070;28;20427;-72
2021/03/16 04:11:25;;;;;;;9.10;2.35;;;4.60;99.90;;;;;;5085402;28;20028;-70
2021/03/16 04:13:52;;;;;;;6.45;1.10;;;4.60;99.90;;;;;;5085086;28;20056;-70
2021/03/16 04:16:19;;;;;;;5.35;1.45;;;4.60;99.90;;;;;;5085204;28;20080;-71
2021/03/16 04:18:45;;;;;;;7.45;1.40;;;4.60;99.90;;;;;;5085294;28;20088;-70
2021/03/16 04:21:13;;;;;;;3.53;0.75;;;4.60;99.90;;;;;;5085128;28;20048;-70
2021/03/16 04:23:40;;;;;;;0.93;0.93;;;4.60;99.90;;;;;;5084877;28;20482;-69
2021/03/16 04:26:05;;;;;;;18.83;1.83;;;4.70;99.90;;;;;;5084942;28;20465;-70
2021/03/16 04:28:31;;;;;;;19.45;1.50;;;4.60;99.90;;;;;;5085108;28;20036;-71
2021/03/16 04:30:56;;;;;;;5.35;1.10;;;4.70;99.90;;;;;;5085008;28;20023;-71
2021/03/16 04:33:22;;;;;;;1.35;0.60;;;4.60;99.90;;;;;;5084789;28;20562;-70
2021/03/16 04:35:48;;;;;;;12.95;2.10;;;4.60;99.90;;;;;;5085083;28;20043;-72
2021/03/16 04:38:14;;;;;;;5.90;1.48;;;4.60;99.90;;;;;;5085031;28;20040;-72
2021/03/16 04:40:41;;;;;;;8.05;1.90;;;4.60;99.90;;;;;;5084735;28;20040;-71
2021/03/16 04:43:08;;;;;;;1.27;0.52;;;4.60;99.90;;;;;;5084825;28;20017;-70
2021/03/16 04:45:34;;;;;;;5.97;1.15;;;4.50;99.90;;;;;;5083457;28;20033;-71
2021/03/16 04:47:59;;;;;;;7.43;1.30;;;4.50;99.90;;;;;;5084691;28;20016;-71
2021/03/16 04:50:25;;;;;;;6.95;0.75;;;4.50;99.90;;;;;;5084968;28;20052;-71
2021/03/16 04:52:52;;;;;;;14.10;1.65;;;4.40;99.90;;;;;;5084672;28;20025;-72
2021/03/16 04:55:18;;;;;;;9.38;1.52;;;4.40;99.90;;;;;;5084691;28;20076;-71
2021/03/16 04:57:43;;;;;;;8.88;0.88;;;4.40;99.90;;;;;;5084683;28;20475;-71
2021/03/16 05:00:09;;;;;;;4.60;1.33;;;4.40;99.90;;;;;;5084585;28;20032;-71
2021/03/16 05:02:35;;;;;;;2.58;1.27;;;4.40;99.90;;;;;;5084530;28;20035;-70
2021/03/16 05:05:01;;;;;;;6.22;1.05;;;4.40;99.90;;;;;;5083254;28;20029;-72
2021/03/16 05:07:27;;;;;;;10.25;1.63;;;4.50;99.90;;;;;;5084250;28;20027;-72
2021/03/16 05:09:53;;;;;;;10.00;1.25;;;4.40;99.90;;;;;;5084498;28;20052;-73
2021/03/16 05:12:19;;;;;;;18.90;2.10;;;4.40;99.90;;;;;;5084489;28;20511;-73
2021/03/16 05:14:45;;;;;;;2.40;1.27;;;4.50;99.90;;;;;;5084426;28;20044;-71
2021/03/16 05:17:11;;;;;;;3.78;1.10;;;4.50;99.90;;;;;;5084663;28;20024;-71
2021/03/16 05:19:37;;;;;;;6.63;1.30;;;4.50;99.90;;;;;;5084422;28;20028;-72
2021/03/16 05:22:03;;;;;;;17.02;2.13;;;4.50;99.90;;;;;;5084574;28;20027;-72
2021/03/16 05:24:28;;;;;;;13.23;1.65;;;4.60;99.90;;;;;;5084212;28;20461;-72
2021/03/16 05:26:54;;;;;;;14.70;1.38;;;4.50;99.90;;;;;;5085366;28;20025;-71
2021/03/16 05:29:20;;;;;;;4.15;1.33;;;4.60;99.90;;;;;;5088069;28;20028;-73
2021/03/16 05:31:46;;;;;;;3.92;1.45;;;4.60;99.90;;;;;;5087827;28;20028;-71
2021/03/16 05:34:12;;;;;;;7.22;1.67;;;4.60;99.90;;;;;;5088045;28;20385;-71
2021/03/16 05:36:37;;;;;;;1.65;0.70;;;4.60;99.90;;;;;;5086544;28;20029;-71
2021/03/16 05:39:03;;;;;;;3.92;0.90;;;4.60;99.90;;;;;;5086600;28;20033;-71
2021/03/16 05:41:30;;;;;;;4.97;1.27;;;4.60;99.90;;;;;;5086344;28;20107;-71
2021/03/16 05:43:55;;;;;;;2.38;0.77;;;4.60;99.90;;;;;;5083722;28;20044;-72
2021/03/16 05:46:22;;;;;;;12.98;1.10;;;4.60;99.90;;;;;;5086222;28;20050;-72
2021/03/16 05:48:53;;;;;;;4.05;1.15;;;4.60;99.90;;;;;;5087695;28;20066;-72
2021/03/16 05:51:19;;;;;;;2.45;0.82;;;4.70;99.90;;;;;;5086253;28;20035;-73
2021/03/16 05:53:53;;;;;;;5.72;1.17;;;4.70;99.90;;;;;;5083392;28;20048;-72
2021/03/16 05:56:19;;;;;;;3.75;0.73;;;4.70;99.90;;;;;;5087632;28;20087;-71
2021/03/16 05:58:44;;;;;;;2.40;0.50;;;4.80;99.90;;;;;;5087553;28;20047;-72
2021/03/16 06:01:12;;;;;;;3.00;0.82;;;4.80;99.90;;;;;;5087119;28;20033;-72
2021/03/16 06:03:38;;;;;;;3.90;1.13;;;4.80;99.90;;;;;;5087119;28;20025;-71
2021/03/16 06:06:04;;;;;;;1.30;0.77;;;4.80;99.90;;;;;;5085765;28;20035;-72
2021/03/16 06:08:42;;;;;;;0.50;0.38;;;4.80;99.90;;;;;;5086959;28;20028;-72
2021/03/16 06:11:08;;;;;;;5.45;0.98;;;4.80;99.90;;;;;;5087235;28;20078;-73
2021/03/16 06:13:35;;;;;;;1.35;0.32;;;4.80;99.90;;;;;;5087132;28;20044;-73
2021/03/16 06:16:15;;;;;;;12.93;1.00;;;4.90;99.90;;;;;;5087170;28;20056;-71
2021/03/16 06:18:42;;;;;;;3.72;1.05;;;4.90;99.90;;;;;;5086944;28;20795;-71
2021/03/16 06:21:09;;;;;;;11.15;0.63;;;4.90;99.90;;;;;;5086890;28;20032;-72
2021/03/16 06:23:37;;;;;;;11.02;1.77;;;4.90;99.90;;;;;;5086685;28;20389;-72
2021/03/16 06:26:11;;;;;;;17.60;1.05;;;4.90;99.90;;;;;;5085273;28;20032;-73
2021/03/16 06:28:36;;;;;;;5.15;1.30;;;4.90;99.90;;;;;;5081611;28;20099;-73
2021/03/16 06:31:03;;;;;;;1.48;0.75;;;5.00;99.90;;;;;;5073650;28;20033;-74
2021/03/16 06:33:34;;;;;;;8.68;1.23;;;5.00;99.90;;;;;;5065094;28;20065;-74
2021/03/16 06:35:59;;;;;;;8.38;1.15;;;5.00;99.90;;;;;;5067439;28;20029;-73
2021/03/16 06:38:26;;;;;;;7.55;0.98;;;5.10;99.90;;;;;;5066896;28;20027;-72
2021/03/16 06:40:53;;;;;;;3.40;1.17;;;5.00;99.90;;;;;;5080565;28;20103;-73
2021/03/16 06:43:25;;;;;;;5.03;1.42;;;5.00;99.90;;;;;;5081727;28;20115;-74
2021/03/16 06:45:53;;;;;;;5.82;0.77;;;5.10;99.90;;;;;;5066681;28;20025;-75
2021/03/16 06:48:22;;;;;;;0.88;0.63;;;5.10;99.90;;;;;;5070954;28;20033;-73
2021/03/16 06:50:51;;;;;;;3.28;0.85;;;5.00;99.90;;;;;;5086744;28;20029;-74
2021/03/16 06:53:20;;;;;;;9.02;1.20;;;5.00;99.90;;;;;;5086299;28;20067;-73
2021/03/16 06:55:57;;;;;;;21.42;2.92;;;5.00;99.90;;;;;;5086421;28;20032;-73
2021/03/16 06:58:27;;;;;;;4.70;0.98;;;5.00;99.90;;;;;;5085057;28;20096;-73
2021/03/16 07:01:16;;;;;;;6.55;1.13;;;5.00;99.90;;;;;;5086021;28;20043;-74
2021/03/16 07:03:42;;;;;;;2.83;0.98;;;5.00;99.90;;;;;;5066079;28;20025;-74
2021/03/16 07:06:19;;;;;;;6.18;1.55;;;5.00;99.90;;;;;;5065880;28;20025;-73
2021/03/16 07:08:47;;;;;;;3.38;0.93;;;5.10;99.90;;;;;;5066046;28;20036;-72
2021/03/16 07:11:24;;;;;;;2.15;1.17;;;5.10;99.90;;;;;;5065825;28;20021;-73
2021/03/16 07:13:50;;;;;;;12.90;1.95;;;5.10;99.90;;;;;;5066412;28;20068;-76
2021/03/16 07:16:16;;;;;;;9.68;1.23;;;5.10;99.90;;;;;;5068557;28;20035;-73
2021/03/16 07:18:46;;;;;;;6.53;0.93;;;5.10;99.90;;;;;;5080613;28;20016;-73
2021/03/16 07:21:38;;;;;;;2.72;0.88;;;5.20;99.90;;;;;;5072978;28;20423;-73
2021/03/16 07:24:09;;;;;;;9.52;0.85;;;5.20;99.90;;;;;;5072184;28;20319;-75
2021/03/16 07:26:36;;;;;;;8.68;0.63;;;5.20;99.90;;;;;;5068637;28;20032;-75
2021/03/16 07:29:08;;;;;;;2.33;0.70;;;5.30;99.90;;;;;;5070108;28;20033;-74
2021/03/16 07:31:40;;;;;;;1.48;0.55;;;5.30;99.90;;;;;;5063884;28;20067;-73
2021/03/16 07:34:08;;;;;;;4.18;0.57;;;5.30;99.90;;;;;;5065662;28;20032;-74
2021/03/16 07:36:36;;;;;;;2.35;1.05;;;5.30;99.90;;;;;;5080849;28;20029;-73
2021/03/16 07:39:05;;;;;;;1.13;0.82;;;5.30;99.90;;;;;;5066137;28;20021;-74
2021/03/16 07:41:32;;;;;;;4.10;0.57;;;5.40;99.90;;;;;;5065088;28;20028;-74
2021/03/16 07:44:10;;;;;;;1.90;0.52;;;5.40;99.90;;;;;;5065049;28;20048;-74
2021/03/16 07:46:46;;;;;;;5.38;0.75;;;5.40;99.90;;;;;;5080625;28;20047;-74
2021/03/16 07:49:13;;;;;;;9.27;1.38;;;5.40;99.90;;;;;;5064630;28;20059;-73
2021/03/16 07:51:43;;;;;;;4.35;1.55;;;5.50;99.90;;;;;;5065144;28;20028;-74
2021/03/16 07:54:10;;;;;;;2.17;0.45;;;5.40;99.90;;;;;;5064290;28;20056;-73
2021/03/16 07:56:37;;;;;;;0.45;0.28;;;5.50;99.90;;;;;;5079852;28;20029;-75
2021/03/16 07:59:04;;;;;;;1.02;0.60;;;5.50;99.90;;;;;;5064452;28;20029;-74
2021/03/16 08:01:30;;;;;;;4.18;0.95;;;5.50;99.90;;;;;;5068806;28;20045;-74
2021/03/16 08:04:09;;;;;;;5.35;1.05;;;5.50;99.90;;;;;;5083654;28;20060;-75
2021/03/16 08:06:36;;;;;;;11.05;1.17;;;5.60;99.90;;;;;;5084567;28;20032;-73
2021/03/16 08:09:04;;;;;;;3.35;0.60;;;5.60;99.90;;;;;;5083533;28;20088;-73
2021/03/16 08:11:41;;;;;;;8.38;1.20;;;5.60;99.90;;;;;;5083046;28;20025;-74
2021/03/16 08:14:07;;;;;;;9.38;1.05;;;5.70;99.90;;;;;;5083896;28;20037;-72
2021/03/16 08:16:42;;;;;;;7.18;0.70;;;5.60;99.90;;;;;;5084638;28;20084;-72
2021/03/16 08:19:18;;;;;;;5.20;0.90;;;5.70;99.90;;;;;;5083356;28;20024;-73
2021/03/16 08:21:53;;;;;;;2.53;0.77;;;5.70;99.90;;;;;;5084575;28;20031;-72
2021/03/16 08:24:18;;;;;;;2.50;0.57;;;5.80;99.90;;;;;;5083650;28;20028;-73
2021/03/16 08:26:46;;;;;;;1.67;0.63;;;5.70;99.90;;;;;;5082873;28;20028;-73
2021/03/16 08:29:12;;;;;;;4.75;1.05;;;5.80;99.90;;;;;;5082390;28;20071;-73
2021/03/16 08:31:39;;;;;;;5.00;0.63;;;5.90;99.90;;;;;;5080199;28;20028;-74
2021/03/16 08:34:08;;;;;;;7.35;0.65;;;6.10;99.90;;;;;;5080848;28;20044;-72
2021/03/16 08:36:43;;;;;;;2.15;1.00;;;6.20;99.90;;;;;;5082732;28;20092;-74
2021/03/16 08:39:17;;;;;;;8.38;1.77;;;6.10;99.90;;;;;;5083804;28;20024;-73
2021/03/16 08:41:58;;;;;;;11.38;1.02;;;6.20;99.90;;;;;;5080356;28;20077;-74
2021/03/16 08:44:34;;;;;;;2.33;0.80;;;6.20;99.90;;;;;;5082909;28;20029;-74
2021/03/16 08:47:14;;;;;;;3.00;0.63;;;6.20;99.90;;;;;;5083425;28;20082;-73
2021/03/16 08:49:45;;;;;;;8.82;1.88;;;6.20;99.90;;;;;;5083747;28;20032;-75
2021/03/16 08:52:28;;;;;;;4.43;0.90;;;6.20;99.90;;;;;;5083710;28;20039;-73
2021/03/16 08:54:56;;;;;;;3.50;0.88;;;6.20;99.90;;;;;;5083856;28;20056;-75
2021/03/16 08:57:24;;;;;;;2.65;1.48;;;6.00;99.90;;;;;;5084213;28;20028;-74
2021/03/16 08:59:51;;;;;;;10.80;1.77;;;6.10;99.90;;;;;;5082316;28;20013;-75
2021/03/16 09:02:20;;;;;;;8.75;0.93;;;6.00;99.90;;;;;;5083783;28;20388;-75
2021/03/16 09:04:46;;;;;;;5.43;1.00;;;6.20;99.90;;;;;;5079724;28;20021;-74
2021/03/16 09:07:23;;;;;;;6.32;0.70;;;6.20;99.90;;;;;;5077844;28;20082;-75
2021/03/16 09:09:50;;;;;;;5.20;1.17;;;6.20;99.90;;;;;;5084147;28;20047;-75
2021/03/16 09:12:30;;;;;;;4.43;1.42;;;6.20;99.90;;;;;;5084269;28;20049;-76
2021/03/16 09:15:10;;;;;;;5.07;1.10;;;6.30;99.90;;;;;;5083771;28;20094;-72
2021/03/16 09:17:38;;;;;;;14.02;1.13;;;6.30;99.90;;;;;;5083865;28;20025;-73
2021/03/16 09:20:22;;;;;;;4.38;1.35;;;6.40;99.90;;;;;;5083956;28;20048;-73
2021/03/16 09:22:54;;;;;;;13.50;1.38;;;6.40;99.90;;;;;;5084553;28;20028;-73
2021/03/16 09:25:26;;;;;;;3.60;0.85;;;6.30;99.90;;;;;;5080138;28;20029;-74
2021/03/16 09:27:59;;;;;;;10.40;1.73;;;6.20;99.90;;;;;;5084150;28;20397;-74
2021/03/16 09:30:30;;;;;;;11.52;0.50;;;6.20;99.90;;;;;;5068888;28;20032;-75
2021/03/16 09:32:57;;;;;;;3.35;1.42;;;6.30;99.90;;;;;;5071343;28;20036;-74
2021/03/16 09:35:23;;;;;;;6.68;0.93;;;6.30;99.90;;;;;;5069500;28;20045;-72
2021/03/16 09:37:51;;;;;;;5.38;1.38;;;6.30;99.90;;;;;;5074146;28;20488;-73
2021/03/16 09:40:28;;;;;;;6.32;1.02;;;6.30;99.90;;;;;;5083518;28;20407;-72
2021/03/16 09:42:54;;;;;;;10.40;1.15;;;6.30;99.90;;;;;;5083984;28;20108;-73
2021/03/16 09:45:21;;;;;;;11.00;1.20;;;6.30;99.90;;;;;;5076433;28;20037;-75
2021/03/16 09:47:47;;;;;;;4.25;0.98;;;6.40;99.90;;;;;;5063875;28;20025;-73
2021/03/16 09:50:22;;;;;;;1.63;0.88;;;6.60;99.90;;;;;;5064183;28;20040;-73
2021/03/16 09:52:57;;;;;;;19.45;1.35;;;7.10;99.90;;;;;;5063763;28;20043;-73
2021/03/16 09:55:26;;;;;;;2.75;0.68;;;7.50;99.90;;;;;;5063491;28;20043;-74
2021/03/16 09:57:53;;;;;;;1.80;1.13;;;7.80;99.90;;;;;;5063338;28;20017;-74
2021/03/16 10:00:23;;;;;;;10.93;1.45;;;7.80;99.90;;;;;;5063381;28;20527;-75
2021/03/16 10:03:00;;;;;;;8.10;1.10;;;7.80;99.90;;;;;;5063505;28;20426;-74
2021/03/16 10:05:25;;;;;;;2.75;0.90;;;7.80;99.90;;;;;;5063742;28;20033;-74
2021/03/16 10:07:52;;;;;;;8.18;1.77;;;7.70;99.90;;;;;;5063614;28;20028;-74
2021/03/16 10:10:26;;;;;;;7.43;1.08;;;7.90;99.90;;;;;;5063544;28;20037;-74
2021/03/16 10:13:02;;;;;;;3.20;0.87;;;8.10;99.90;;;;;;5065372;28;20044;-75
2021/03/16 10:15:40;;;;;;;6.97;0.95;;;8.40;99.90;;;;;;5067362;28;20037;-75
2021/03/16 10:18:12;;;;;;;11.77;1.73;;;8.50;99.90;;;;;;5074917;28;20474;-72
2021/03/16 10:20:40;;;;;;;14.40;2.08;;;8.60;99.90;;;;;;5075300;28;20025;-74
2021/03/16 10:23:12;;;;;;;1.50;0.68;;;8.50;99.90;;;;;;5082325;28;20021;-73
2021/03/16 10:25:39;;;;;;;2.92;1.02;;;8.50;99.90;;;;;;5066356;28;20025;-72
2021/03/16 10:28:06;;;;;;;5.55;1.15;;;8.70;99.90;;;;;;5081577;28;20067;-73
2021/03/16 10:30:33;;;;;;;5.07;1.02;;;8.90;99.90;;;;;;5078820;28;20039;-75
2021/03/16 10:32:59;;;;;;;7.07;0.95;;;9.00;99.90;;;;;;5071205;28;20396;-74
2021/03/16 10:35:26;;;;;;;4.65;1.15;;;9.00;99.90;;;;;;5072952;28;20041;-74
2021/03/16 10:37:52;;;;;;;6.85;1.23;;;9.10;99.90;;;;;;5076200;28;20055;-73
2021/03/16 10:40:18;;;;;;;6.88;1.08;;;9.40;99.90;;;;;;5076101;28;20032;-72
2021/03/16 10:42:43;;;;;;;4.28;1.27;;;9.50;99.90;;;;;;5079970;28;20090;-73
2021/03/16 10:45:09;;;;;;;5.05;0.80;;;9.80;99.90;;;;;;5075184;28;20033;-73
2021/03/16 10:47:35;;;;;;;5.00;1.35;;;9.90;99.90;;;;;;5070437;28;20377;-73
2021/03/16 10:50:01;;;;;;;3.75;1.65;;;10.00;99.90;;;;;;5076683;28;20032;-72
2021/03/16 10:52:27;;;;;;;1.25;0.45;;;9.90;99.90;;;;;;5080467;28;20056;-76
2021/03/16 10:54:53;;;;;;;4.72;1.20;;;9.80;99.90;;;;;;5072609;28;20040;-71
2021/03/16 10:57:18;;;;;;;1.23;0.47;;;9.50;99.90;;;;;;5085271;28;20063;-72
2021/03/16 10:59:44;;;;;;;9.00;0.63;;;9.30;99.90;;;;;;5080600;28;20037;-72
2021/03/16 11:02:10;;;;;;;5.38;1.02;;;9.40;99.90;;;;;;5066435;28;20025;-72
2021/03/16 11:04:36;;;;;;;5.75;1.33;;;9.50;99.90;;;;;;5084701;28;20040;-73
2021/03/16 11:07:02;;;;;;;2.08;0.70;;;9.70;99.90;;;;;;5084936;28;20031;-72
2021/03/16 11:09:28;;;;;;;5.05;0.70;;;9.70;99.90;;;;;;5085658;28;20020;-74
2021/03/16 11:11:53;;;;;;;2.25;1.02;;;9.50;99.90;;;;;;5084457;28;20109;-72
2021/03/16 11:14:19;;;;;;;1.25;0.68;;;9.50;99.90;;;;;;5086214;28;20040;-72
2021/03/16 11:16:45;;;;;;;2.20;0.63;;;9.50;99.90;;;;;;5086090;28;20086;-72
2021/03/16 11:19:10;;;;;;;3.42;0.68;;;9.90;99.90;;;;;;5085833;28;20028;-71
2021/03/16 11:21:36;;;;;;;6.60;0.93;;;10.30;99.90;;;;;;5083111;28;20103;-72
2021/03/16 11:24:02;;;;;;;10.60;1.48;;;10.50;99.90;;;;;;5082357;28;20025;-73
2021/03/16 11:26:27;;;;;;;5.53;1.08;;;10.40;99.90;;;;;;5083909;28;20032;-73
2021/03/16 11:28:54;;;;;;;7.47;1.05;;;10.30;99.90;;;;;;5085391;28;20024;-72
2021/03/16 11:31:20;;;;;;;4.00;0.80;;;10.10;99.90;;;;;;5085903;28;20028;-72
2021/03/16 11:33:46;;;;;;;3.63;0.90;;;9.90;99.90;;;;;;5085819;28;20036;-73
2021/03/16 11:36:12;;;;;;;2.10;0.90;;;9.80;99.90;;;;;;5084955;28;20032;-73
2021/03/16 11:38:37;;;;;;;1.30;0.57;;;9.70;99.90;;;;;;5084942;28;20025;-73
2021/03/16 11:41:03;;;;;;;1.50;0.75;;;9.70;99.90;;;;;;5078526;28;20036;-72
2021/03/16 11:43:29;;;;;;;8.23;0.82;;;9.80;99.90;;;;;;5073689;28;20033;-73
2021/03/16 11:45:55;;;;;;;1.95;0.82;;;9.80;99.90;;;;;;5078978;28;20036;-74
2021/03/16 11:48:21;;;;;;;1.48;0.75;;;9.90;99.90;;;;;;5065478;28;20028;-74
2021/03/16 11:50:47;;;;;;;1.40;0.28;;;10.20;99.90;;;;;;5079128;28;20036;-72
2021/03/16 11:53:13;;;;;;;1.77;0.73;;;10.50;99.90;;;;;;5080081;28;20021;-72
2021/03/16 11:55:39;;;;;;;0.80;0.40;;;10.80;99.90;;;;;;5064929;28;20025;-73
2021/03/16 11:58:04;;;;;;;1.40;0.75;;;10.90;99.90;;;;;;5071162;28;20050;-74
2021/03/16 12:00:30;;;;;;;1.73;0.50;;;10.60;99.90;;;;;;5084296;28;20048;-72
2021/03/16 12:02:57;;;;;;;6.75;1.08;;;10.40;99.90;;;;;;5085313;28;20043;-73
2021/03/16 12:05:23;;;;;;;5.50;0.65;;;10.70;99.90;;;;;;5064255;28;20436;-72
2021/03/16 12:07:49;;;;;;;5.88;0.50;;;10.90;99.90;;;;;;5065038;28;20036;-72
2021/03/16 12:10:15;;;;;;;1.77;0.40;;;11.40;99.90;;;;;;5064873;28;20036;-73
2021/03/16 12:12:40;;;;;;;0.57;0.32;;;11.90;99.90;;;;;;5079989;28;20485;-72
2021/03/16 12:15:14;;;;;;;3.20;0.93;;;12.10;99.90;;;;;;5063129;28;20033;-71
2021/03/16 12:17:40;;;;;;;1.45;0.63;;;12.30;99.90;;;;;;5071730;28;20029;-73
2021/03/16 12:20:07;;;;;;;1.00;0.35;;;12.50;99.90;;;;;;5083359;28;20088;-72
2021/03/16 12:22:32;;;;;;;7.88;1.02;;;12.30;99.90;;;;;;5084836;28;20025;-74
2021/03/16 12:24:59;;;;;;;3.75;0.60;;;12.00;99.90;;;;;;5084470;28;20032;-75
2021/03/16 12:27:25;;;;;;;1.52;0.77;;;11.80;99.90;;;;;;5083285;28;20036;-73
2021/03/16 12:29:51;;;;;;;2.67;0.85;;;11.80;99.90;;;;;;5083732;28;20024;-72
2021/03/16 12:32:17;;;;;;;4.32;0.98;;;11.60;99.90;;;;;;5084780;28;20033;-73
2021/03/16 12:34:43;;;;;;;9.93;3.60;;;11.30;99.90;;;;;;5082457;28;20047;-73
2021/03/16 12:37:08;;;;;;;21.77;8.18;;;10.90;99.90;;;;;;5081481;28;20029;-73
2021/03/16 12:39:35;;;;;;;4.10;2.10;;;10.70;99.90;;;;;;5064229;28;20029;-73
2021/03/16 12:42:00;;;;;;;5.30;1.20;;;10.70;99.90;;;;;;5064559;28;20087;-73
2021/03/16 12:44:26;;;;;;;6.38;0.88;;;10.70;99.90;;;;;;5079612;28;20032;-74
2021/03/16 12:46:52;;;;;;;8.88;1.05;;;11.00;99.90;;;;;;5064575;28;20104;-73
2021/03/16 12:49:18;;;;;;;3.05;1.27;;;11.10;99.90;;;;;;5064432;28;20029;-72
2021/03/16 12:51:43;;;;;;;5.57;1.52;;;11.50;99.90;;;;;;5064103;28;20056;-72
2021/03/16 12:54:09;;;;;;;3.67;1.30;;;12.00;99.90;;;;;;5062724;28;20100;-73
2021/03/16 12:56:35;;;;;;;4.95;1.00;;;11.80;99.90;;;;;;5064161;28;20025;-70
2021/03/16 12:59:01;;;;;;;1.38;0.35;;;11.90;99.90;;;;;;5064525;28;20112;-73